Time;durP1;ratioP1;P1;durP2;ratioP2;P2;SDS_P1;SDS_P2;PMS_P1;PMS_P2;Temp;Humidity;BMP_temperature;BMP_pressure;BME280_temperature;BME280_humidity;BME280_pressure;Samples;Min_cycle;Max_cycle;Signal;HPM_P1;HPM_P2
2023/04/28 00:00:51;;;;;;;14.75;5.47;;;;;;;;;;5115467;27;20082;-78
2023/04/28 00:03:17;;;;;;;12.27;5.35;;;;;;;;;;5115732;27;20058;-77
2023/04/28 00:05:44;;;;;;;11.60;6.03;;;;;;;;;;5115397;27;20055;-78
2023/04/28 00:08:10;;;;;;;12.52;5.47;;;;;;;;;;5115748;27;20086;-77
2023/04/28 00:10:36;;;;;;;15.13;6.20;;;;;;;;;;5115263;27;20051;-77
2023/04/28 00:13:02;;;;;;;12.73;5.90;;;;;;;;;;5115319;27;20055;-77
2023/04/28 00:15:28;;;;;;;;;;;;;;;;;;5116454;27;20047;-77
2023/04/28 00:17:54;;;;;;;15.32;5.38;;;;;;;;;;5121266;27;20386;-78
2023/04/28 00:20:20;;;;;;;13.52;5.70;;;;;;;;;;5135145;27;20046;-77
2023/04/28 00:22:48;;;;;;;13.00;5.82;;;;;;;;;;5121732;27;20047;-78
2023/04/28 00:25:14;;;;;;;12.20;6.03;;;;;;;;;;5127151;27;20047;-77
2023/04/28 00:27:40;;;;;;;11.65;6.07;;;;;;;;;;5119079;27;20054;-77
2023/04/28 00:30:06;;;;;;;11.95;5.97;;;;;;;;;;5135583;27;20078;-77
2023/04/28 00:32:32;;;;;;;10.77;5.32;;;;;;;;;;5135687;27;20480;-78
2023/04/28 00:34:58;;;;;;;13.50;5.90;;;;;;;;;;5134968;27;20373;-77
2023/04/28 00:37:24;;;;;;;12.30;5.78;;;;;;;;;;5118672;27;20448;-77
2023/04/28 00:39:54;;;;;;;15.77;6.32;;;;;;;;;;5134908;27;20086;-78
2023/04/28 00:42:20;;;;;;;12.40;5.95;;;;;;;;;;5116559;27;20419;-77
2023/04/28 00:44:46;;;;;;;;;;;;;;;;;;5133155;27;20095;-78
2023/04/28 00:47:13;;;;;;;14.30;5.90;;;;;;;;;;5121538;27;20156;-79
2023/04/28 00:49:39;;;;;;;12.82;5.72;;;;;;;;;;5124247;27;20042;-80
2023/04/28 00:52:06;;;;;;;12.52;5.72;;;;;;;;;;5104877;27;20089;-77
2023/04/28 00:54:36;;;;;;;12.25;5.65;;;;;;;;;;5113625;27;20130;-77
2023/04/28 00:57:03;;;;;;;10.50;4.88;;;;;;;;;;5127743;27;20428;-77
2023/04/28 00:59:30;;;;;;;12.55;5.70;;;;;;;;;;5132099;27;20058;-78
2023/04/28 01:01:56;;;;;;;16.92;7.07;;;;;;;;;;5128226;27;20153;-78
2023/04/28 01:04:22;;;;;;;;;;;;;;;;;;5125925;27;20078;-77
2023/04/28 01:06:49;;;;;;;18.33;5.15;;;;;;;;;;5114924;27;19957;-78
2023/04/28 01:09:15;;;;;;;12.40;5.47;;;;;;;;;;5096427;27;20043;-77
2023/04/28 01:11:41;;;;;;;12.82;5.57;;;;;;;;;;5117046;27;20488;-77
2023/04/28 01:14:07;;;;;;;12.60;6.10;;;;;;;;;;5125096;27;20045;-77
2023/04/28 01:16:34;;;;;;;12.65;5.53;;;;;;;;;;5116718;27;20051;-77
2023/04/28 01:19:00;;;;;;;;;;;;;;;;;;5107068;27;20046;-77
2023/04/28 01:21:35;;;;;;;12.02;5.80;;;;;;;;;;5119186;27;19923;-78
2023/04/28 01:24:01;;;;;;;15.00;5.63;;;;;;;;;;5123324;27;20134;-78
2023/04/28 01:26:27;;;;;;;;;;;;;;;;;;5114836;27;20077;-77
2023/04/28 01:28:53;;;;;;;14.73;5.55;;;;;;;;;;5124885;27;20382;-77
2023/04/28 01:31:19;;;;;;;13.45;5.22;;;;;;;;;;5116507;27;20043;-77
2023/04/28 01:33:45;;;;;;;;;;;;;;;;;;5113738;27;20097;-77
2023/04/28 01:36:11;;;;;;;12.57;6.30;;;;;;;;;;5113590;27;19996;-77
2023/04/28 01:38:37;;;;;;;11.25;6.03;;;;;;;;;;5107148;27;20106;-77
2023/04/28 01:41:03;;;;;;;17.85;6.60;;;;;;;;;;5129229;27;20072;-77
2023/04/28 01:43:29;;;;;;;13.77;6.00;;;;;;;;;;5107380;27;20039;-77
2023/04/28 01:45:55;;;;;;;13.85;5.72;;;;;;;;;;5126366;27;20133;-77
2023/04/28 01:48:21;;;;;;;10.32;5.55;;;;;;;;;;5133033;27;20459;-77
2023/04/28 01:50:48;;;;;;;13.07;5.82;;;;;;;;;;5130108;27;20038;-77
2023/04/28 01:53:14;;;;;;;11.13;5.40;;;;;;;;;;5113454;27;20134;-77
2023/04/28 01:55:40;;;;;;;;;;;;;;;;;;5127574;27;20042;-77
2023/04/28 01:58:06;;;;;;;11.68;5.90;;;;;;;;;;5133347;27;19923;-77
2023/04/28 02:00:32;;;;;;;11.65;5.40;;;;;;;;;;5131755;27;20043;-77
2023/04/28 02:02:58;;;;;;;12.07;5.35;;;;;;;;;;5133918;27;20060;-77
2023/04/28 02:05:25;;;;;;;13.90;6.00;;;;;;;;;;5133390;27;20074;-77
2023/04/28 02:07:51;;;;;;;11.30;5.18;;;;;;;;;;5116161;27;20502;-77
2023/04/28 02:10:17;;;;;;;15.65;6.20;;;;;;;;;;5113249;27;20481;-77
2023/04/28 02:12:43;;;;;;;17.15;6.05;;;;;;;;;;5134086;27;20479;-77
2023/04/28 02:15:09;;;;;;;16.92;6.80;;;;;;;;;;5133531;27;20639;-77
2023/04/28 02:17:35;;;;;;;;;;;;;;;;;;5134091;27;20050;-77
2023/04/28 02:20:01;;;;;;;11.82;5.90;;;;;;;;;;5133249;27;19972;-77
2023/04/28 02:22:27;;;;;;;12.60;5.85;;;;;;;;;;5122748;27;20050;-77
2023/04/28 02:24:53;;;;;;;13.18;5.68;;;;;;;;;;5112639;27;20046;-77
2023/04/28 02:27:20;;;;;;;12.57;5.82;;;;;;;;;;5096251;28;20047;-77
2023/04/28 02:29:46;;;;;;;15.07;5.60;;;;;;;;;;5113507;27;20074;-77
2023/04/28 02:32:12;;;;;;;14.82;5.93;;;;;;;;;;5112926;27;20040;-77
2023/04/28 02:34:38;;;;;;;14.73;6.10;;;;;;;;;;5131085;27;20050;-77
2023/04/28 02:37:04;;;;;;;13.68;6.43;;;;;;;;;;5124861;27;20051;-78
2023/04/28 02:39:31;;;;;;;12.15;6.07;;;;;;;;;;5133304;27;20050;-77
2023/04/28 02:41:58;;;;;;;13.60;5.80;;;;;;;;;;5114935;27;20049;-77
2023/04/28 02:44:24;;;;;;;16.27;5.55;;;;;;;;;;5130807;28;20095;-77
2023/04/28 02:46:50;;;;;;;;;;;;;;;;;;5113449;28;20496;-78
2023/04/28 02:49:16;;;;;;;15.68;6.10;;;;;;;;;;5095213;28;20018;-77
2023/04/28 02:51:42;;;;;;;12.55;5.63;;;;;;;;;;5116496;27;20096;-77
2023/04/28 02:54:08;;;;;;;13.55;6.13;;;;;;;;;;5129077;27;20143;-77
2023/04/28 02:56:35;;;;;;;17.48;6.60;;;;;;;;;;5117087;27;20050;-77
2023/04/28 02:59:02;;;;;;;14.70;5.68;;;;;;;;;;5134609;27;20125;-77
2023/04/28 03:01:28;;;;;;;12.10;5.65;;;;;;;;;;5137513;27;20047;-77
2023/04/28 03:03:55;;;;;;;12.55;6.20;;;;;;;;;;5132997;27;20405;-77
2023/04/28 03:06:21;;;;;;;;;;;;;;;;;;5100398;27;20047;-77
2023/04/28 03:08:47;;;;;;;12.25;6.15;;;;;;;;;;5137031;27;19926;-74
2023/04/28 03:11:13;;;;;;;13.93;6.43;;;;;;;;;;5154904;27;20042;-77
2023/04/28 03:13:39;;;;;;;15.18;6.45;;;;;;;;;;5137546;27;20054;-77
2023/04/28 03:16:06;;;;;;;13.60;6.00;;;;;;;;;;5137845;27;20398;-78
2023/04/28 03:18:33;;;;;;;16.10;5.68;;;;;;;;;;5136311;27;20047;-77
2023/04/28 03:20:59;;;;;;;16.73;6.13;;;;;;;;;;5118168;27;20078;-77
2023/04/28 03:23:25;;;;;;;13.77;5.78;;;;;;;;;;5116591;27;20054;-78
2023/04/28 03:25:51;;;;;;;14.75;5.80;;;;;;;;;;5116131;27;20050;-78
2023/04/28 03:28:17;;;;;;;12.65;5.88;;;;;;;;;;5116340;27;20445;-77
2023/04/28 03:30:43;;;;;;;11.85;5.80;;;;;;;;;;5099928;27;20086;-77
2023/04/28 03:33:09;;;;;;;12.65;5.30;;;;;;;;;;5115816;27;20043;-78
2023/04/28 03:35:35;;;;;;;15.18;6.60;;;;;;;;;;5134362;27;20055;-77
2023/04/28 03:38:01;;;;;;;14.43;6.00;;;;;;;;;;5120656;27;20051;-78
2023/04/28 03:40:27;;;;;;;14.20;5.75;;;;;;;;;;5118172;27;20496;-78
2023/04/28 03:42:53;;;;;;;13.98;5.43;;;;;;;;;;5096706;27;20043;-77
2023/04/28 03:45:20;;;;;;;14.38;5.70;;;;;;;;;;5133170;27;20399;-78
2023/04/28 03:47:45;;;;;;;;;;;;;;;;;;5133684;27;20496;-78
2023/04/28 03:50:11;;;;;;;13.30;5.55;;;;;;;;;;5132306;27;19998;-78
2023/04/28 03:52:38;;;;;;;16.15;6.43;;;;;;;;;;5116714;27;20050;-77
2023/04/28 03:55:04;;;;;;;15.07;7.07;;;;;;;;;;5132743;27;20082;-77
2023/04/28 03:57:30;;;;;;;;;;;;;;;;;;5111620;28;20044;-77
2023/04/28 03:59:56;;;;;;;13.98;5.78;;;;;;;;;;5112956;27;19927;-77
2023/04/28 04:02:22;;;;;;;12.15;5.38;;;;;;;;;;5111573;28;20044;-77
2023/04/28 04:04:48;;;;;;;12.70;6.13;;;;;;;;;;5126943;27;20149;-77
2023/04/28 04:07:14;;;;;;;15.30;6.50;;;;;;;;;;5132566;27;20051;-77
2023/04/28 04:09:40;;;;;;;13.57;5.78;;;;;;;;;;5131908;27;20057;-77
2023/04/28 04:12:06;;;;;;;12.18;5.95;;;;;;;;;;5133373;27;20043;-77
2023/04/28 04:14:32;;;;;;;;;;;;;;;;;;5115749;27;20825;-77
2023/04/28 04:16:58;;;;;;;16.15;5.78;;;;;;;;;;5123929;27;20002;-78
2023/04/28 04:19:25;;;;;;;12.00;5.38;;;;;;;;;;5122358;27;20396;-78
2023/04/28 04:21:52;;;;;;;14.20;6.22;;;;;;;;;;5122304;27;20054;-77
2023/04/28 04:24:18;;;;;;;12.70;5.85;;;;;;;;;;5086880;28;20434;-78
2023/04/28 04:26:44;;;;;;;14.18;5.93;;;;;;;;;;5120996;27;20392;-77
2023/04/28 04:29:10;;;;;;;15.90;5.72;;;;;;;;;;5112060;28;20391;-77
2023/04/28 04:31:36;;;;;;;14.40;6.53;;;;;;;;;;5120245;27;20127;-77
2023/04/28 04:34:02;;;;;;;11.50;5.57;;;;;;;;;;5129259;27;20047;-78
2023/04/28 04:36:28;;;;;;;12.77;5.70;;;;;;;;;;5111681;28;20079;-77
2023/04/28 04:38:54;;;;;;;14.05;6.35;;;;;;;;;;5123278;27;20059;-78
2023/04/28 04:41:20;;;;;;;;;;;;;;;;;;5112532;27;20074;-77
2023/04/28 04:43:46;;;;;;;11.52;5.45;;;;;;;;;;5124176;27;19966;-78
2023/04/28 04:46:13;;;;;;;12.98;5.25;;;;;;;;;;5113929;27;20494;-78
2023/04/28 04:48:39;;;;;;;14.27;6.10;;;;;;;;;;5113041;27;20150;-77
2023/04/28 04:51:05;;;;;;;15.02;5.93;;;;;;;;;;5108843;28;20046;-77
2023/04/28 04:53:32;;;;;;;12.07;6.30;;;;;;;;;;5111104;28;20051;-77
2023/04/28 04:55:58;;;;;;;13.93;5.55;;;;;;;;;;5080741;28;20057;-77
2023/04/28 04:58:24;;;;;;;;;;;;;;;;;;5110920;28;20156;-77
2023/04/28 05:00:50;;;;;;;16.00;5.53;;;;;;;;;;5111763;28;20011;-77
2023/04/28 05:03:16;;;;;;;11.85;5.45;;;;;;;;;;5110976;28;20039;-77
2023/04/28 05:05:44;;;;;;;12.43;6.15;;;;;;;;;;5106339;27;20126;-77
2023/04/28 05:08:10;;;;;;;15.88;6.20;;;;;;;;;;5115208;27;20047;-77
2023/04/28 05:10:36;;;;;;;14.43;6.13;;;;;;;;;;5111620;27;20050;-77
2023/04/28 05:13:03;;;;;;;13.40;5.60;;;;;;;;;;5111090;27;20507;-77
2023/04/28 05:15:29;;;;;;;12.13;5.55;;;;;;;;;;5103578;28;20528;-77
2023/04/28 05:17:56;;;;;;;14.88;5.95;;;;;;;;;;5110390;27;20047;-77
2023/04/28 05:20:22;;;;;;;10.73;4.97;;;;;;;;;;5109855;28;20047;-77
2023/04/28 05:22:48;;;;;;;13.50;5.45;;;;;;;;;;5110340;28;20055;-77
2023/04/28 05:25:14;;;;;;;12.60;5.25;;;;;;;;;;5111905;27;20128;-77
2023/04/28 05:27:41;;;;;;;12.18;5.63;;;;;;;;;;5131100;27;20042;-77
2023/04/28 05:30:06;;;;;;;;;;;;;;;;;;5130535;27;20046;-77
2023/04/28 05:32:33;;;;;;;11.77;5.35;;;;;;;;;;5113416;27;19920;-77
2023/04/28 05:34:59;;;;;;;14.05;6.40;;;;;;;;;;5113673;27;20503;-77
2023/04/28 05:37:25;;;;;;;;;;;;;;;;;;5105081;27;20047;-81
2023/04/28 05:39:52;;;;;;;12.68;5.35;;;;;;;;;;5113379;27;19923;-74
2023/04/28 05:42:18;;;;;;;;;;;;;;;;;;5132977;27;20039;-72
2023/04/28 05:44:44;;;;;;;12.90;5.15;;;;;;;;;;5131469;27;19927;-73
2023/04/28 05:47:10;;;;;;;;;;;;;;;;;;5113124;27;20129;-77
2023/04/28 05:49:36;;;;;;;13.43;5.75;;;;;;;;;;5128880;27;20010;-75
2023/04/28 05:52:02;;;;;;;15.02;5.60;;;;;;;;;;5134794;27;20054;-75
2023/04/28 05:54:29;;;;;;;15.80;5.50;;;;;;;;;;5125316;27;20049;-76
2023/04/28 05:56:55;;;;;;;10.63;5.32;;;;;;;;;;5134475;27;20070;-75
2023/04/28 05:59:21;;;;;;;;;;;;;;;;;;5134978;27;20089;-75
2023/04/28 06:01:47;;;;;;;12.73;5.40;;;;;;;;;;5124008;27;19920;-77
2023/04/28 06:04:13;;;;;;;10.98;5.47;;;;;;;;;;5113289;27;20053;-73
2023/04/28 06:06:39;;;;;;;10.93;4.70;;;;;;;;;;5113567;27;20442;-73
2023/04/28 06:09:05;;;;;;;;;;;;;;;;;;5113535;27;20475;-72
2023/04/28 06:11:31;;;;;;;12.95;5.15;;;;;;;;;;5116735;27;19919;-73
2023/04/28 06:13:57;;;;;;;12.63;5.40;;;;;;;;;;5124764;27;20126;-72
2023/04/28 06:16:23;;;;;;;12.00;4.75;;;;;;;;;;5133959;27;20057;-76
2023/04/28 06:18:49;;;;;;;12.27;5.10;;;;;;;;;;5150711;27;20571;-73
2023/04/28 06:21:16;;;;;;;13.55;5.50;;;;;;;;;;5134360;27;20491;-71
2023/04/28 06:23:42;;;;;;;9.55;4.88;;;;;;;;;;5134027;27;20483;-74
2023/04/28 06:26:08;;;;;;;13.50;4.72;;;;;;;;;;5151707;27;20042;-73
2023/04/28 06:28:35;;;;;;;;;;;;;;;;;;5152232;27;20041;-74
2023/04/28 06:31:01;;;;;;;11.25;4.63;;;;;;;;;;5144120;27;19945;-73
2023/04/28 06:33:27;;;;;;;9.30;4.78;;;;;;;;;;5122730;27;20075;-77
2023/04/28 06:35:53;;;;;;;10.25;4.97;;;;;;;;;;5131578;27;20047;-79
2023/04/28 06:38:19;;;;;;;10.80;4.55;;;;;;;;;;5119591;27;20090;-77
2023/04/28 06:40:45;;;;;;;;;;;;;;;;;;5114387;28;20063;-72
2023/04/28 06:43:11;;;;;;;11.68;4.70;;;;;;;;;;5137849;27;19926;-74
2023/04/28 06:45:38;;;;;;;8.75;4.63;;;;;;;;;;5151716;27;20065;-72
2023/04/28 06:48:04;;;;;;;8.27;4.30;;;;;;;;;;5133455;27;20126;-73
2023/04/28 06:50:31;;;;;;;10.00;4.57;;;;;;;;;;5132799;27;20104;-73
2023/04/28 06:52:57;;;;;;;17.13;5.05;;;;;;;;;;5146674;27;20130;-73
2023/04/28 06:55:24;;;;;;;10.48;4.80;;;;;;;;;;5112591;28;20047;-73
2023/04/28 06:57:49;;;;;;;;;;;;;;;;;;5122490;27;20046;-73
2023/04/28 07:00:16;;;;;;;14.15;4.32;;;;;;;;;;5152057;27;19927;-73
2023/04/28 07:02:42;;;;;;;14.30;4.85;;;;;;;;;;5151152;27;20082;-73
2023/04/28 07:05:08;;;;;;;19.17;5.90;;;;;;;;;;5151411;27;20047;-82
2023/04/28 07:07:34;;;;;;;;;;;;;;;;;;5134163;27;20042;-80
2023/04/28 07:10:01;;;;;;;17.95;5.90;;;;;;;;;;5133281;27;19941;-81
2023/04/28 07:12:27;;;;;;;11.43;4.57;;;;;;;;;;5134133;27;20042;-81
2023/04/28 07:14:54;;;;;;;;;;;;;;;;;;5125984;28;20134;-82
2023/04/28 07:17:20;;;;;;;;;;;;;;;;;;5113142;28;20286;-76
2023/04/28 07:19:48;;;;;;;10.82;3.95;;;;;;;;;;5130796;27;19919;-77
2023/04/28 07:22:14;;;;;;;10.75;4.63;;;;;;;;;;5122204;27;20050;-78
2023/04/28 07:24:40;;;;;;;9.82;4.70;;;;;;;;;;5110643;28;20110;-79
2023/04/28 07:27:07;;;;;;;11.13;5.10;;;;;;;;;;5111769;27;20056;-79
2023/04/28 07:29:33;;;;;;;18.70;6.10;;;;;;;;;;5098113;28;20070;-81
2023/04/28 07:32:04;;;;;;;12.23;4.50;;;;;;;;;;5111637;27;20066;-80
2023/04/28 07:34:30;;;;;;;9.48;4.30;;;;;;;;;;5096084;28;20523;-80
2023/04/28 07:36:57;;;;;;;14.27;4.50;;;;;;;;;;5113315;27;20051;-80
2023/04/28 07:39:23;;;;;;;9.80;4.70;;;;;;;;;;5113987;27;20050;-79
2023/04/28 07:41:49;;;;;;;11.50;5.13;;;;;;;;;;5114343;27;20121;-78
2023/04/28 07:44:15;;;;;;;9.95;4.32;;;;;;;;;;5118242;28;20235;-77
2023/04/28 07:46:41;;;;;;;11.65;5.03;;;;;;;;;;5097819;27;20043;-80
2023/04/28 07:49:08;;;;;;;9.07;4.72;;;;;;;;;;5095598;27;20130;-81
2023/04/28 07:51:34;;;;;;;11.27;5.00;;;;;;;;;;5121625;27;20035;-82
2023/04/28 07:54:00;;;;;;;9.68;4.15;;;;;;;;;;5117588;27;20543;-82
2023/04/28 07:56:27;;;;;;;9.75;4.75;;;;;;;;;;5126882;27;20365;-80
2023/04/28 07:58:53;;;;;;;9.68;4.60;;;;;;;;;;5105787;27;20547;-80
2023/04/28 08:01:19;;;;;;;10.00;4.20;;;;;;;;;;5114911;27;20572;-79
2023/04/28 08:03:45;;;;;;;;;;;;;;;;;;5122469;27;20047;-79
2023/04/28 08:06:12;;;;;;;9.35;4.43;;;;;;;;;;5114253;27;19971;-80
2023/04/28 08:08:38;;;;;;;10.98;4.05;;;;;;;;;;5123071;27;20496;-82
2023/04/28 08:11:04;;;;;;;8.57;4.15;;;;;;;;;;5118012;27;20035;-80
2023/04/28 08:13:30;;;;;;;11.50;4.53;;;;;;;;;;5122045;27;20039;-80
2023/04/28 08:15:56;;;;;;;;;;;;;;;;;;5100750;27;20038;-81
2023/04/28 08:18:23;;;;;;;9.07;4.28;;;;;;;;;;5132782;27;19919;-81
2023/04/28 08:20:49;;;;;;;9.48;4.85;;;;;;;;;;5114549;27;20050;-81
2023/04/28 08:23:15;;;;;;;;;;;;;;;;;;5120876;27;20050;-78
2023/04/28 08:25:41;;;;;;;10.40;4.57;;;;;;;;;;5134427;27;19919;-82
2023/04/28 08:28:09;;;;;;;;;;;;;;;;;;5120173;27;20051;-80
2023/04/28 08:30:37;;;;;;;9.55;4.78;;;;;;;;;;5125164;27;19929;-79
2023/04/28 08:33:03;;;;;;;9.70;4.75;;;;;;;;;;5101329;27;20047;-79
2023/04/28 08:35:29;;;;;;;13.38;5.53;;;;;;;;;;5113215;27;20050;-78
2023/04/28 08:37:56;;;;;;;8.68;4.80;;;;;;;;;;5119568;27;20601;-71
2023/04/28 08:40:23;;;;;;;10.38;4.70;;;;;;;;;;5132657;27;20089;-73
2023/04/28 08:42:49;;;;;;;11.10;6.18;;;;;;;;;;5114568;27;20078;-73
2023/04/28 08:45:15;;;;;;;10.48;5.32;;;;;;;;;;5124783;27;20662;-73
2023/04/28 08:47:46;;;;;;;9.60;4.72;;;;;;;;;;5136806;27;20080;-76
2023/04/28 08:50:12;;;;;;;12.02;4.65;;;;;;;;;;5132696;27;20047;-74
2023/04/28 08:52:39;;;;;;;9.88;4.88;;;;;;;;;;5115050;27;20095;-74
2023/04/28 08:55:10;;;;;;;12.65;5.10;;;;;;;;;;5113744;27;20120;-71
2023/04/28 08:57:42;;;;;;;11.23;5.45;;;;;;;;;;5134275;27;20125;-72
2023/04/28 09:00:08;;;;;;;10.38;5.22;;;;;;;;;;5142791;27;20049;-73
2023/04/28 09:02:36;;;;;;;13.10;5.35;;;;;;;;;;5118069;27;20062;-72
2023/04/28 09:05:03;;;;;;;12.75;5.10;;;;;;;;;;5131732;27;20055;-72
2023/04/28 09:07:29;;;;;;;9.05;5.30;;;;;;;;;;5132607;27;20031;-73
2023/04/28 09:10:14;;;;;;;9.65;5.15;;;;;;;;;;5132988;27;20066;-79
2023/04/28 09:12:40;;;;;;;11.65;5.20;;;;;;;;;;5113836;27;20081;-78
2023/04/28 09:15:08;;;;;;;10.93;5.45;;;;;;;;;;5115439;27;20137;-78
2023/04/28 09:17:47;;;;;;;15.02;5.47;;;;;;;;;;5123155;27;20086;-77
2023/04/28 09:20:23;;;;;;;8.27;4.60;;;;;;;;;;5115454;27;20046;-78
2023/04/28 09:22:50;;;;;;;10.30;5.00;;;;;;;;;;5122558;27;20043;-78
2023/04/28 09:25:16;;;;;;;8.80;4.82;;;;;;;;;;5113571;27;20050;-77
2023/04/28 09:27:42;;;;;;;11.38;5.40;;;;;;;;;;5117947;27;20050;-78
2023/04/28 09:30:09;;;;;;;;;;;;;;;;;;5127621;27;20524;-79
2023/04/28 09:32:36;;;;;;;8.73;4.78;;;;;;;;;;5114110;27;20325;-78
2023/04/28 09:35:03;;;;;;;12.63;4.80;;;;;;;;;;5122226;27;20043;-78
2023/04/28 09:37:30;;;;;;;9.70;4.90;;;;;;;;;;5124440;27;20042;-77
2023/04/28 09:39:58;;;;;;;7.85;4.45;;;;;;;;;;5120534;27;20059;-78
2023/04/28 09:42:40;;;;;;;10.05;5.13;;;;;;;;;;5116858;27;20084;-77
2023/04/28 09:45:08;;;;;;;11.43;5.03;;;;;;;;;;5118293;27;20027;-78
2023/04/28 09:47:35;;;;;;;10.57;5.30;;;;;;;;;;5116082;27;20081;-78
2023/04/28 09:50:02;;;;;;;9.27;5.20;;;;;;;;;;5128110;27;20042;-78
2023/04/28 09:52:28;;;;;;;10.60;5.20;;;;;;;;;;5129350;27;20053;-77
2023/04/28 09:54:55;;;;;;;;;;;;;;;;;;5114757;27;20125;-78
2023/04/28 09:57:21;;;;;;;10.13;5.43;;;;;;;;;;5125989;27;19926;-77
2023/04/28 09:59:51;;;;;;;9.82;5.40;;;;;;;;;;5123703;27;20043;-80
2023/04/28 10:02:19;;;;;;;12.45;5.72;;;;;;;;;;5121980;27;20078;-78
2023/04/28 10:04:45;;;;;;;19.52;6.50;;;;;;;;;;5112699;27;20106;-77
2023/04/28 10:07:13;;;;;;;9.90;5.43;;;;;;;;;;5104690;27;20125;-77
2023/04/28 10:09:43;;;;;;;10.80;5.32;;;;;;;;;;5130554;27;20395;-77
2023/04/28 10:12:10;;;;;;;11.27;5.20;;;;;;;;;;5132806;27;20042;-77
2023/04/28 10:14:36;;;;;;;10.95;5.30;;;;;;;;;;5132363;27;20499;-77
2023/04/28 10:17:05;;;;;;;12.90;5.45;;;;;;;;;;5104818;27;20042;-77
2023/04/28 10:19:32;;;;;;;11.13;4.70;;;;;;;;;;5120052;27;20500;-77
2023/04/28 10:22:05;;;;;;;10.85;5.90;;;;;;;;;;5114596;27;20087;-79
2023/04/28 10:24:32;;;;;;;10.32;4.97;;;;;;;;;;5115375;27;20042;-79
2023/04/28 10:27:07;;;;;;;9.95;4.90;;;;;;;;;;5124620;27;20042;-79
2023/04/28 10:29:34;;;;;;;7.72;4.65;;;;;;;;;;5127772;27;20395;-77
2023/04/28 10:32:16;;;;;;;16.27;5.97;;;;;;;;;;5118109;27;20043;-78
2023/04/28 10:34:42;;;;;;;12.00;5.68;;;;;;;;;;5085487;27;20050;-79
2023/04/28 10:37:08;;;;;;;;;;;;;;;;;;5105902;27;20057;-78
2023/04/28 10:39:34;;;;;;;12.80;5.35;;;;;;;;;;5113303;28;19920;-78
2023/04/28 10:42:00;;;;;;;13.80;5.10;;;;;;;;;;5112613;28;20047;-79
2023/04/28 10:44:26;;;;;;;;;;;;;;;;;;5110175;28;20189;-74
2023/04/28 10:47:00;;;;;;;11.63;5.40;;;;;;;;;;5139026;27;20013;-82
2023/04/28 10:49:45;;;;;;;10.52;5.03;;;;;;;;;;5119492;28;20508;-79
2023/04/28 10:52:30;;;;;;;10.07;5.13;;;;;;;;;;5121943;27;20054;-79
2023/04/28 10:55:15;;;;;;;11.02;5.18;;;;;;;;;;5127084;28;20051;-79
2023/04/28 10:57:41;;;;;;;8.75;4.97;;;;;;;;;;5112971;27;20044;-78
2023/04/28 11:00:27;;;;;;;10.85;5.00;;;;;;;;;;5112400;28;20044;-80
2023/04/28 11:02:53;;;;;;;15.35;5.22;;;;;;;;;;5114944;27;20467;-81
2023/04/28 11:05:19;;;;;;;;;;;;;;;;;;5098267;27;20051;-78
2023/04/28 11:08:04;;;;;;;11.57;5.53;;;;;;;;;;5130492;27;19929;-79
2023/04/28 11:10:49;;;;;;;9.68;4.22;;;;;;;;;;5120960;27;20031;-78
2023/04/28 11:13:25;;;;;;;9.18;4.75;;;;;;;;;;5122978;28;20045;-79
2023/04/28 11:16:02;;;;;;;10.77;4.67;;;;;;;;;;5113893;27;20103;-79
2023/04/28 11:18:28;;;;;;;8.40;4.60;;;;;;;;;;5129563;27;20047;-80
2023/04/28 11:20:54;;;;;;;;;;;;;;;;;;5117636;27;20451;-78
2023/04/28 11:23:20;;;;;;;9.23;4.70;;;;;;;;;;5116325;27;19963;-79
2023/04/28 11:25:56;;;;;;;8.38;4.70;;;;;;;;;;5116046;27;20133;-78
2023/04/28 11:28:23;;;;;;;8.90;3.90;;;;;;;;;;5117005;27;20505;-79
2023/04/28 11:30:49;;;;;;;7.47;3.97;;;;;;;;;;5100186;27;20047;-79
2023/04/28 11:33:15;;;;;;;;;;;;;;;;;;5116925;27;20184;-78
2023/04/28 11:35:41;;;;;;;8.90;4.05;;;;;;;;;;5116238;27;20014;-79
2023/04/28 11:38:07;;;;;;;9.00;4.90;;;;;;;;;;5115752;27;20066;-79
2023/04/28 11:40:33;;;;;;;;;;;;;;;;;;5125489;27;20629;-79
2023/04/28 11:43:00;;;;;;;8.68;4.22;;;;;;;;;;5119695;27;19922;-81
2023/04/28 11:45:26;;;;;;;7.60;4.10;;;;;;;;;;5119794;27;20500;-79
2023/04/28 11:47:52;;;;;;;9.18;4.60;;;;;;;;;;5136884;27;20052;-78
2023/04/28 11:50:18;;;;;;;;;;;;;;;;;;5136392;27;20626;-78
2023/04/28 11:52:48;;;;;;;12.32;4.80;;;;;;;;;;5137284;27;19919;-79
2023/04/28 11:55:16;;;;;;;8.93;4.47;;;;;;;;;;5135595;27;20137;-78
2023/04/28 11:57:42;;;;;;;9.70;4.72;;;;;;;;;;5135692;27;20043;-79
2023/04/28 12:00:13;;;;;;;9.90;5.63;;;;;;;;;;5134773;27;20099;-78
2023/04/28 12:02:39;;;;;;;12.35;5.13;;;;;;;;;;5125730;27;20042;-78
2023/04/28 12:05:05;;;;;;;;;;;;;;;;;;5081848;27;20054;-79
2023/04/28 12:07:39;;;;;;;10.65;5.05;;;;;;;;;;5116273;27;19942;-78
2023/04/28 12:10:12;;;;;;;10.35;5.25;;;;;;;;;;5114819;27;20047;-70
2023/04/28 12:12:38;;;;;;;10.60;5.28;;;;;;;;;;5134143;27;20563;-76
2023/04/28 12:15:05;;;;;;;12.02;5.25;;;;;;;;;;5117084;27;20039;-77
2023/04/28 12:17:41;;;;;;;12.30;4.47;;;;;;;;;;5126642;27;20475;-78
2023/04/28 12:20:11;;;;;;;9.05;4.82;;;;;;;;;;5108780;27;20046;-78
2023/04/28 12:22:47;;;;;;;8.60;5.38;;;;;;;;;;5125302;27;20051;-77
2023/04/28 12:25:18;;;;;;;9.98;5.35;;;;;;;;;;5109051;27;20043;-78
2023/04/28 12:28:02;;;;;;;9.98;5.78;;;;;;;;;;5121261;27;20078;-77
2023/04/28 12:30:30;;;;;;;11.20;5.65;;;;;;;;;;5122394;27;20130;-77
2023/04/28 12:32:56;;;;;;;10.55;6.05;;;;;;;;;;5126694;27;20126;-77
2023/04/28 12:35:23;;;;;;;12.68;5.70;;;;;;;;;;5109382;27;20070;-78
2023/04/28 12:37:49;;;;;;;12.15;6.88;;;;;;;;;;5130297;27;20515;-77
2023/04/28 12:40:15;;;;;;;11.25;7.07;;;;;;;;;;5114029;27;20061;-77
2023/04/28 12:42:41;;;;;;;;;;;;;;;;;;5131298;27;20112;-77
2023/04/28 12:45:08;;;;;;;14.15;7.13;;;;;;;;;;5113231;27;19927;-80
2023/04/28 12:47:34;;;;;;;13.30;7.07;;;;;;;;;;5111408;27;20051;-78
2023/04/28 12:50:00;;;;;;;;;;;;;;;;;;5094775;28;20052;-78
2023/04/28 12:52:26;;;;;;;14.95;8.40;;;;;;;;;;5113498;27;19919;-78
2023/04/28 12:54:52;;;;;;;15.93;7.82;;;;;;;;;;5119452;27;20078;-78
2023/04/28 12:57:19;;;;;;;13.93;7.90;;;;;;;;;;5110507;27;20422;-77
2023/04/28 12:59:51;;;;;;;14.32;7.88;;;;;;;;;;5123054;27;20052;-78
2023/04/28 13:02:17;;;;;;;16.08;8.48;;;;;;;;;;5120500;27;20114;-79
2023/04/28 13:04:47;;;;;;;15.20;8.65;;;;;;;;;;5112162;27;20043;-80
2023/04/28 13:07:13;;;;;;;16.10;8.25;;;;;;;;;;5126101;27;20046;-79
2023/04/28 13:09:41;;;;;;;16.33;8.55;;;;;;;;;;5129395;27;20408;-80
2023/04/28 13:12:07;;;;;;;14.85;7.75;;;;;;;;;;5101305;28;20077;-81
2023/04/28 13:14:33;;;;;;;;;;;;;;;;;;5117128;27;20042;-79
2023/04/28 13:17:01;;;;;;;14.48;7.63;;;;;;;;;;5129936;27;19923;-78
2023/04/28 13:19:29;;;;;;;17.10;9.18;;;;;;;;;;5112309;27;20104;-78
2023/04/28 13:21:55;;;;;;;19.00;10.07;;;;;;;;;;5117379;27;20053;-79
2023/04/28 13:24:21;;;;;;;;;;;;;;;;;;5112921;27;20072;-80
2023/04/28 13:26:47;;;;;;;20.23;9.90;;;;;;;;;;5125540;27;19923;-80
2023/04/28 13:29:13;;;;;;;22.48;10.40;;;;;;;;;;5108362;27;20058;-79
2023/04/28 13:31:39;;;;;;;;;;;;;;;;;;5131073;27;20050;-79
2023/04/28 13:34:06;;;;;;;18.33;9.98;;;;;;;;;;5115661;27;20010;-79
2023/04/28 13:36:33;;;;;;;19.45;9.75;;;;;;;;;;5130050;27;20047;-79
2023/04/28 13:38:59;;;;;;;17.98;10.00;;;;;;;;;;5113112;27;20062;-79
2023/04/28 13:41:25;;;;;;;;;;;;;;;;;;5113361;27;20467;-79
2023/04/28 13:43:52;;;;;;;21.30;12.93;;;;;;;;;;5129617;27;19954;-80
2023/04/28 13:46:18;;;;;;;21.58;11.73;;;;;;;;;;5122964;27;20399;-80
2023/04/28 13:48:44;;;;;;;;;;;;;;;;;;5130147;27;20639;-80
2023/04/28 13:51:11;;;;;;;24.67;12.80;;;;;;;;;;5133210;27;19933;-80
2023/04/28 13:53:37;;;;;;;21.65;12.48;;;;;;;;;;5121661;27;20077;-78
2023/04/28 13:56:07;;;;;;;23.85;13.50;;;;;;;;;;5111836;27;20079;-78
2023/04/28 13:58:33;;;;;;;25.63;13.27;;;;;;;;;;5125300;27;20081;-78
2023/04/28 14:01:00;;;;;;;25.85;13.30;;;;;;;;;;5132015;27;20047;-78
2023/04/28 14:03:26;;;;;;;25.83;14.18;;;;;;;;;;5125108;27;20107;-78
2023/04/28 14:05:54;;;;;;;25.98;13.52;;;;;;;;;;5113842;27;20051;-78
2023/04/28 14:08:20;;;;;;;27.35;14.32;;;;;;;;;;5103659;27;20054;-78
2023/04/28 14:10:47;;;;;;;24.15;14.63;;;;;;;;;;5132536;27;20086;-78
2023/04/28 14:13:13;;;;;;;23.13;13.32;;;;;;;;;;5132874;27;20046;-80
2023/04/28 14:15:40;;;;;;;28.45;15.20;;;;;;;;;;5127822;27;20039;-78
2023/04/28 14:18:07;;;;;;;24.15;13.93;;;;;;;;;;5105147;27;20135;-79
2023/04/28 14:20:33;;;;;;;24.13;13.82;;;;;;;;;;5125626;27;20039;-79
2023/04/28 14:22:59;;;;;;;;;;;;;;;;;;5134033;27;20039;-78
2023/04/28 14:25:25;;;;;;;24.17;13.98;;;;;;;;;;5131481;27;19934;-78
2023/04/28 14:27:51;;;;;;;;;;;;;;;;;;5121721;27;20043;-79
2023/04/28 14:30:18;;;;;;;24.88;14.57;;;;;;;;;;5112970;27;19931;-79
2023/04/28 14:32:44;;;;;;;29.15;14.60;;;;;;;;;;5109340;27;20047;-78
2023/04/28 14:35:11;;;;;;;26.13;14.95;;;;;;;;;;5121326;28;20043;-79
2023/04/28 14:37:38;;;;;;;26.73;15.45;;;;;;;;;;5095869;27;20047;-79
2023/04/28 14:40:04;;;;;;;29.10;16.75;;;;;;;;;;5113972;28;20495;-78
2023/04/28 14:42:32;;;;;;;26.50;15.57;;;;;;;;;;5109003;28;20478;-78
2023/04/28 14:45:16;;;;;;;27.45;16.75;;;;;;;;;;5100955;28;20050;-79
2023/04/28 14:47:42;;;;;;;30.73;16.75;;;;;;;;;;5112066;28;20051;-79